createdAt,value
2023-01-27T00:00:41.985Z,-2.04
2023-01-27T00:03:13.329Z,-2.25
2023-01-27T00:05:41.356Z,-2.18
2023-01-27T00:08:09.743Z,-2.19
2023-01-27T00:10:37.903Z,-2.12
2023-01-27T00:13:24.828Z,-2.06
2023-01-27T00:15:52.866Z,-2.10
2023-01-27T00:18:20.998Z,-2.14
2023-01-27T00:21:02.796Z,-2.16
2023-01-27T00:23:48.483Z,-2.17
2023-01-27T00:26:17.355Z,-2.23
2023-01-27T00:28:47.661Z,-2.19
2023-01-27T00:31:33.973Z,-2.32
2023-01-27T00:34:09.463Z,-2.41
2023-01-27T00:36:38.316Z,-2.20
2023-01-27T00:45:03.373Z,-2.25
2023-01-27T00:47:31.656Z,-2.18
2023-01-27T00:49:59.656Z,-2.10
2023-01-27T00:52:28.019Z,-1.98
2023-01-27T00:54:56.103Z,-1.92
2023-01-27T00:57:24.151Z,-1.91
2023-01-27T00:59:53.517Z,-1.94
2023-01-27T01:02:21.627Z,-2.00
2023-01-27T01:04:49.547Z,-2.13
2023-01-27T01:07:17.386Z,-2.16
2023-01-27T01:09:45.358Z,-2.17
2023-01-27T01:12:13.652Z,-2.21
2023-01-27T01:14:41.782Z,-2.26
2023-01-27T01:17:11.119Z,-2.22
2023-01-27T01:19:39.251Z,-2.22
2023-01-27T01:22:07.260Z,-2.15
2023-01-27T01:24:35.365Z,-2.15
2023-01-27T01:27:03.278Z,-2.16
2023-01-27T01:29:31.331Z,-2.20
2023-01-27T01:31:59.263Z,-2.20
2023-01-27T01:34:28.865Z,-2.21
2023-01-27T01:36:56.902Z,-2.18
2023-01-27T01:39:24.794Z,-2.37
2023-01-27T01:41:52.738Z,-2.31
2023-01-27T01:44:21.639Z,-2.28
2023-01-27T01:46:49.793Z,-2.42
2023-01-27T01:49:20.120Z,-2.49
2023-01-27T01:51:51.605Z,-2.54
2023-01-27T01:54:21.085Z,-2.54
2023-01-27T01:56:51.128Z,-2.50
2023-01-27T01:59:20.799Z,-2.51
2023-01-27T02:01:48.946Z,-2.59
2023-01-27T02:04:19.497Z,-2.50
2023-01-27T02:06:51.193Z,-2.49
2023-01-27T02:09:21.904Z,-2.52
2023-01-27T02:11:50.064Z,-2.67
2023-01-27T02:14:18.751Z,-2.63
2023-01-27T02:16:46.849Z,-2.58
2023-01-27T02:19:22.575Z,-2.87
2023-01-27T02:21:52.039Z,-2.58
2023-01-27T02:24:21.667Z,-2.55
2023-01-27T02:26:51.491Z,-2.63
2023-01-27T02:29:19.614Z,-2.57
2023-01-27T02:31:47.666Z,-2.57
2023-01-27T02:34:18.023Z,-2.63
2023-01-27T02:36:48.137Z,-2.54
2023-01-27T02:39:16.600Z,-2.54
2023-01-27T02:41:46.265Z,-2.50
2023-01-27T02:44:15.831Z,-2.56
2023-01-27T02:46:44.165Z,-2.49
2023-01-27T02:49:12.145Z,-2.50
2023-01-27T02:51:40.732Z,-2.51
2023-01-27T02:54:09.027Z,-2.46
2023-01-27T02:56:37.019Z,-2.50
2023-01-27T02:59:04.953Z,-2.58
2023-01-27T03:01:34.586Z,-2.54
2023-01-27T03:04:02.848Z,-2.56
2023-01-27T03:06:30.888Z,-2.54
2023-01-27T03:08:58.931Z,-2.58
2023-01-27T03:11:40.748Z,-2.37
2023-01-27T03:14:09.087Z,-2.46
2023-01-27T03:16:56.071Z,-2.53
2023-01-27T03:19:24.019Z,-2.49
2023-01-27T03:21:53.044Z,-2.54
2023-01-27T03:24:21.206Z,-2.47
2023-01-27T03:26:49.501Z,-2.54
2023-01-27T03:29:34.794Z,-2.58
2023-01-27T03:32:04.366Z,-2.58
2023-01-27T03:34:32.374Z,-2.59
2023-01-27T03:37:18.103Z,-2.61
2023-01-27T03:40:03.279Z,-2.58
2023-01-27T03:42:48.893Z,-2.61
2023-01-27T03:45:34.229Z,-2.62
2023-01-27T03:48:03.772Z,-2.57
2023-01-27T03:50:38.061Z,-2.53
2023-01-27T03:53:07.331Z,-2.44
2023-01-27T03:55:36.213Z,-2.40
2023-01-27T03:58:14.902Z,-2.45
2023-01-27T04:00:42.891Z,-2.50
2023-01-27T04:06:35.167Z,-2.48
2023-01-27T04:09:03.180Z,-2.53
2023-01-27T04:11:48.457Z,-2.52
2023-01-27T04:14:16.509Z,-2.58
2023-01-27T04:16:44.837Z,-2.66
2023-01-27T04:19:14.638Z,-2.62
2023-01-27T04:21:42.992Z,-2.68
2023-01-27T04:24:16.914Z,-2.64
2023-01-27T04:26:45.865Z,-2.77
2023-01-27T04:29:14.700Z,-2.73
2023-01-27T04:31:43.844Z,-2.64
2023-01-27T04:34:12.448Z,-2.77
2023-01-27T04:36:41.936Z,-2.79
2023-01-27T04:39:10.957Z,-2.85
2023-01-27T04:41:39.057Z,-2.83
2023-01-27T04:44:08.017Z,-2.83
2023-01-27T04:46:36.039Z,-2.82
2023-01-27T04:49:04.669Z,-2.91
2023-01-27T04:51:33.392Z,-3.04
2023-01-27T04:54:03.938Z,-3.05
2023-01-27T04:56:33.425Z,-3.15
2023-01-27T04:59:04.921Z,-2.99
2023-01-27T05:01:33.228Z,-2.98
2023-01-27T05:04:01.431Z,-3.07
2023-01-27T05:06:29.753Z,-3.08
2023-01-27T05:08:57.822Z,-3.00
2023-01-27T05:11:27.335Z,-2.96
2023-01-27T05:13:55.333Z,-2.90
2023-01-27T05:16:24.044Z,-2.93
2023-01-27T05:18:53.418Z,-2.98
2023-01-27T05:21:22.391Z,-2.96
2023-01-27T05:23:50.675Z,-2.87
2023-01-27T05:26:19.466Z,-2.92
2023-01-27T05:28:49.677Z,-3.11
2023-01-27T05:31:20.428Z,-3.16
2023-01-27T05:33:49.182Z,-3.08
2023-01-27T05:36:19.380Z,-3.02
2023-01-27T05:38:47.657Z,-2.94
2023-01-27T05:41:16.483Z,-3.00
2023-01-27T05:43:45.845Z,-2.99
2023-01-27T05:46:16.302Z,-2.93
2023-01-27T05:48:45.528Z,-2.97
2023-01-27T05:51:15.218Z,-2.97
2023-01-27T05:53:43.804Z,-3.12
2023-01-27T05:56:12.561Z,-3.12
2023-01-27T05:58:40.862Z,-2.99
2023-01-27T06:01:09.894Z,-2.99
2023-01-27T06:03:39.397Z,-2.95
2023-01-27T06:06:08.207Z,-2.94
2023-01-27T06:08:37.137Z,-2.85
2023-01-27T06:11:05.689Z,-2.96
2023-01-27T06:13:36.037Z,-2.71
2023-01-27T06:16:04.747Z,-2.77
2023-01-27T06:18:33.048Z,-2.78
2023-01-27T06:21:02.978Z,-2.73
2023-01-27T06:23:31.174Z,-2.74
2023-01-27T06:26:02.537Z,-2.72
2023-01-27T06:28:30.683Z,-2.68
2023-01-27T06:31:06.043Z,-2.63
2023-01-27T06:33:34.279Z,-2.62
2023-01-27T06:36:05.249Z,-2.52
2023-01-27T06:38:33.368Z,-2.49
2023-01-27T06:41:02.021Z,-2.59
2023-01-27T06:43:30.348Z,-2.53
2023-01-27T06:45:58.960Z,-2.42
2023-01-27T06:48:27.417Z,-2.41
2023-01-27T06:50:55.754Z,-2.35
2023-01-27T06:53:25.286Z,-2.33
2023-01-27T06:55:56.965Z,-2.37
2023-01-27T06:58:25.397Z,-2.21
2023-01-27T07:00:53.788Z,-2.16
2023-01-27T07:03:22.075Z,-2.08
2023-01-27T07:05:50.131Z,-1.95
2023-01-27T07:08:18.204Z,-1.93
2023-01-27T07:10:48.012Z,-2.03
2023-01-27T07:13:16.196Z,-2.02
2023-01-27T07:15:44.559Z,-2.03
2023-01-27T07:18:14.060Z,-2.00
2023-01-27T07:20:42.383Z,-2.07
2023-01-27T07:23:18.838Z,-2.18
2023-01-27T07:28:47.245Z,-2.13
2023-01-27T07:31:15.307Z,-2.10
2023-01-27T07:33:43.861Z,-2.10
2023-01-27T07:36:11.907Z,-2.07
2023-01-27T07:38:39.913Z,-1.91
2023-01-27T07:41:08.529Z,-1.87
2023-01-27T07:43:36.565Z,-1.94
2023-01-27T07:46:06.016Z,-2.07
2023-01-27T07:48:34.352Z,-2.01
2023-01-27T07:51:02.353Z,-1.94
2023-01-27T07:53:30.331Z,-1.90
2023-01-27T07:56:00.511Z,-1.73
2023-01-27T07:58:28.560Z,-1.67
2023-01-27T08:00:56.468Z,-1.67
2023-01-27T08:03:27.541Z,-1.60
2023-01-27T08:05:55.632Z,-1.60
2023-01-27T08:08:23.761Z,-1.54
2023-01-27T08:10:51.920Z,-1.52
2023-01-27T08:13:19.960Z,-1.49
2023-01-27T08:15:47.985Z,-1.51
2023-01-27T08:18:16.211Z,-1.57
2023-01-27T08:20:46.170Z,-1.51
2023-01-27T08:23:14.374Z,-1.62
2023-01-27T08:25:42.294Z,-1.65
2023-01-27T08:28:10.340Z,-1.46
2023-01-27T08:30:38.575Z,-1.44
2023-01-27T08:33:06.699Z,-1.36
2023-01-27T08:35:35.935Z,-1.34
2023-01-27T08:38:05.761Z,-1.40
2023-01-27T08:40:33.688Z,-1.44
2023-01-27T08:43:04.690Z,-1.23
2023-01-27T08:45:32.882Z,-1.08
2023-01-27T08:48:01.019Z,-1.27
2023-01-27T08:50:30.383Z,-1.20
2023-01-27T08:52:59.420Z,-1.37
2023-01-27T08:55:29.388Z,-1.28
2023-01-27T08:57:57.564Z,-1.30
2023-01-27T09:00:26.688Z,-1.36
2023-01-27T09:02:54.789Z,-1.46
2023-01-27T09:05:23.689Z,-1.69
2023-01-27T09:07:51.779Z,-1.45
2023-01-27T09:10:20.292Z,-1.29
2023-01-27T09:12:50.128Z,-1.03
2023-01-27T09:15:18.146Z,-1.06
2023-01-27T09:17:47.327Z,-0.99
2023-01-27T09:20:15.925Z,-0.86
2023-01-27T09:22:44.309Z,-0.67
2023-01-27T09:25:14.886Z,-0.59
2023-01-27T09:27:43.070Z,-0.58
2023-01-27T09:30:14.175Z,-0.73
2023-01-27T09:32:42.661Z,-0.93
2023-01-27T09:35:11.520Z,-1.07
2023-01-27T09:37:42.490Z,-1.11
2023-01-27T09:40:13.586Z,-1.14
2023-01-27T09:42:49.081Z,-1.17
2023-01-27T09:45:26.159Z,-1.03
2023-01-27T09:48:06.176Z,-0.89
2023-01-27T09:50:52.132Z,-0.95
2023-01-27T09:53:47.033Z,-0.92
2023-01-27T09:56:20.729Z,-1.09
2023-01-27T09:59:01.136Z,-1.03
2023-01-27T10:01:35.263Z,-0.88
2023-01-27T10:04:16.295Z,-0.90
2023-01-27T10:06:51.390Z,-0.95
2023-01-27T10:09:35.953Z,-0.89
2023-01-27T10:12:10.137Z,-0.94
2023-01-27T10:14:43.270Z,-0.99
2023-01-27T10:17:21.589Z,-0.99
2023-01-27T10:19:56.184Z,-1.01
2023-01-27T10:22:31.930Z,-0.90
2023-01-27T10:25:07.084Z,-1.00
2023-01-27T10:27:38.003Z,-1.11
2023-01-27T10:30:12.081Z,-1.04
2023-01-27T10:32:44.960Z,-0.92
2023-01-27T10:35:21.031Z,-0.93
2023-01-27T10:37:55.925Z,-1.08
2023-01-27T10:40:29.743Z,-0.90
2023-01-27T10:43:02.529Z,-1.00
2023-01-27T10:51:26.944Z,-0.84
2023-01-27T10:53:58.832Z,-0.96
2023-01-27T10:56:30.148Z,-0.87
2023-01-27T10:59:06.320Z,-0.95
2023-01-27T11:01:36.069Z,-0.88
2023-01-27T11:04:06.121Z,-0.91
2023-01-27T11:06:38.171Z,-0.72
2023-01-27T11:09:08.165Z,-0.76
2023-01-27T11:11:45.567Z,-0.62
2023-01-27T11:14:18.717Z,-0.82
2023-01-27T11:16:49.411Z,-0.81
2023-01-27T11:19:24.370Z,-0.72
2023-01-27T11:22:06.551Z,-0.85
2023-01-27T11:24:40.464Z,-0.85
2023-01-27T11:27:15.425Z,-1.00
2023-01-27T11:29:47.703Z,-0.99
2023-01-27T11:32:21.343Z,-0.93
2023-01-27T11:35:03.391Z,-0.80
2023-01-27T11:37:35.525Z,-0.81
2023-01-27T11:40:04.025Z,-0.66
2023-01-27T11:42:35.144Z,-0.82
2023-01-27T11:45:03.969Z,-0.87
2023-01-27T11:47:35.562Z,-0.78
2023-01-27T11:50:04.709Z,-0.72
2023-01-27T11:52:34.087Z,-0.63
2023-01-27T11:55:05.504Z,-0.70
2023-01-27T11:57:34.236Z,-0.52
2023-01-27T12:00:04.199Z,-0.71
2023-01-27T12:02:36.685Z,-0.70
2023-01-27T12:05:07.986Z,-0.73
2023-01-27T12:07:51.206Z,-0.72
2023-01-27T12:10:23.736Z,-0.60
2023-01-27T12:12:52.176Z,-0.61
2023-01-27T12:15:20.967Z,-0.58
2023-01-27T12:17:50.617Z,-0.50
2023-01-27T12:20:27.666Z,-0.55
2023-01-27T12:23:00.250Z,-0.60
2023-01-27T12:25:29.362Z,-0.80
2023-01-27T12:27:59.943Z,-0.72
2023-01-27T12:30:29.833Z,-0.65
2023-01-27T12:32:59.475Z,-0.65
2023-01-27T12:35:29.165Z,-0.65
2023-01-27T12:37:59.864Z,-0.63
2023-01-27T12:40:29.218Z,-0.59
2023-01-27T12:43:13.817Z,-0.59
2023-01-27T12:45:43.498Z,-0.68
2023-01-27T12:48:19.603Z,-0.69
2023-01-27T12:50:58.149Z,-0.83
2023-01-27T12:53:28.764Z,-1.00
2023-01-27T12:55:58.915Z,-0.89
2023-01-27T12:58:31.597Z,-0.94
2023-01-27T13:01:01.255Z,-0.95
2023-01-27T13:03:29.984Z,-1.00
2023-01-27T13:05:59.970Z,-1.05
2023-01-27T13:08:32.987Z,-1.11
2023-01-27T13:11:01.932Z,-1.09
2023-01-27T13:13:30.903Z,-1.10
2023-01-27T13:16:04.458Z,-1.13
2023-01-27T13:18:34.806Z,-1.20
2023-01-27T13:21:17.563Z,-1.16
2023-01-27T13:23:49.314Z,-0.96
2023-01-27T13:26:19.269Z,-1.00
2023-01-27T13:28:53.111Z,-1.04
2023-01-27T13:31:24.618Z,-1.05
2023-01-27T13:33:56.081Z,-1.11
2023-01-27T13:36:29.388Z,-1.16
2023-01-27T13:39:02.413Z,-1.13
2023-01-27T13:41:34.177Z,-1.06
2023-01-27T13:44:04.889Z,-1.12
2023-01-27T13:46:34.969Z,-1.05
2023-01-27T13:49:06.248Z,-1.14
2023-01-27T13:51:38.086Z,-1.12
2023-01-27T13:54:12.150Z,-1.08
2023-01-27T13:56:46.384Z,-1.10
2023-01-27T13:59:25.475Z,-1.16
2023-01-27T14:01:57.114Z,-1.24
2023-01-27T14:10:34.716Z,-1.12
2023-01-27T14:13:09.004Z,-1.11
2023-01-27T14:15:40.583Z,-1.03
2023-01-27T14:18:12.134Z,-1.06
2023-01-27T14:20:47.173Z,-1.13
2023-01-27T14:23:23.699Z,-1.16
2023-01-27T14:25:57.227Z,-1.08
2023-01-27T14:28:31.128Z,-1.14
2023-01-27T14:31:00.411Z,-1.04
2023-01-27T14:33:35.802Z,-1.13
2023-01-27T14:36:08.630Z,-1.07
2023-01-27T14:38:43.535Z,-1.06
2023-01-27T14:41:19.329Z,-1.04
2023-01-27T14:43:50.586Z,-1.09
2023-01-27T14:46:23.352Z,-1.06
2023-01-27T14:48:57.146Z,-1.02
2023-01-27T14:51:32.308Z,-0.91
2023-01-27T14:54:07.132Z,-0.94
2023-01-27T14:56:42.454Z,-1.11
2023-01-27T14:59:15.172Z,-1.06
2023-01-27T15:01:47.704Z,-1.03
2023-01-27T15:04:27.643Z,-0.98
2023-01-27T15:06:57.847Z,-1.18
2023-01-27T15:09:34.923Z,-1.21
2023-01-27T15:12:17.111Z,-1.16
2023-01-27T15:15:15.649Z,-1.13
2023-01-27T15:17:48.072Z,-1.06
2023-01-27T15:20:36.797Z,-0.97
2023-01-27T15:23:20.947Z,-0.99
2023-01-27T15:25:51.582Z,-1.04
2023-01-27T15:28:24.716Z,-1.04
2023-01-27T15:31:22.547Z,-1.02
2023-01-27T15:33:51.727Z,-1.10
2023-01-27T15:36:31.105Z,-1.08
2023-01-27T15:39:01.176Z,-0.98
2023-01-27T15:41:29.568Z,-1.05
2023-01-27T15:44:16.544Z,-1.03
2023-01-27T15:46:46.201Z,-1.11
2023-01-27T15:49:27.799Z,-1.02
2023-01-27T15:51:56.757Z,-0.98
2023-01-27T15:54:27.545Z,-1.00
2023-01-27T15:57:04.869Z,-0.95
2023-01-27T15:59:57.214Z,-0.91
2023-01-27T16:02:27.590Z,-0.95
2023-01-27T16:04:56.880Z,-0.87
2023-01-27T16:07:28.628Z,-0.95
2023-01-27T16:09:59.763Z,-1.00
2023-01-27T16:12:33.542Z,-0.97
2023-01-27T16:15:19.981Z,-0.99
2023-01-27T16:18:00.744Z,-0.97
2023-01-27T16:20:30.780Z,-0.85
2023-01-27T16:23:02.194Z,-0.90
2023-01-27T16:25:32.949Z,-0.85
2023-01-27T16:28:03.810Z,-0.78
2023-01-27T16:30:35.243Z,-0.80
2023-01-27T16:33:06.803Z,-0.88
2023-01-27T16:35:40.782Z,-0.80
2023-01-27T16:38:16.201Z,-0.80
2023-01-27T16:40:49.188Z,-0.75
2023-01-27T16:43:19.021Z,-0.73
2023-01-27T16:45:48.556Z,-0.70
2023-01-27T16:48:22.692Z,-0.64
2023-01-27T16:50:51.323Z,-0.64
2023-01-27T16:53:20.439Z,-0.64
2023-01-27T16:55:59.262Z,-0.68
2023-01-27T16:58:39.762Z,-0.79
2023-01-27T17:01:19.091Z,-0.71
2023-01-27T17:03:49.421Z,-0.79
2023-01-27T17:06:18.580Z,-0.84
2023-01-27T17:08:47.332Z,-0.89
2023-01-27T17:11:19.065Z,-0.80
2023-01-27T17:13:51.848Z,-0.75
2023-01-27T17:16:24.328Z,-0.82
2023-01-27T17:18:55.388Z,-0.78
2023-01-27T17:21:34.454Z,-0.79
2023-01-27T17:24:04.479Z,-0.72
2023-01-27T17:26:32.825Z,-0.81
2023-01-27T17:29:04.915Z,-0.71
2023-01-27T17:31:35.400Z,-0.63
2023-01-27T17:34:04.986Z,-0.69
2023-01-27T17:36:33.144Z,-0.71
2023-01-27T17:39:01.736Z,-0.75
2023-01-27T17:41:31.884Z,-0.93
2023-01-27T17:44:01.820Z,-0.87
2023-01-27T17:46:31.939Z,-0.78
2023-01-27T17:49:01.172Z,-0.75
2023-01-27T17:51:34.953Z,-0.85
2023-01-27T17:54:06.856Z,-0.68
2023-01-27T17:56:35.439Z,-0.74
2023-01-27T17:59:06.821Z,-0.69
2023-01-27T18:01:35.858Z,-0.56
2023-01-27T18:04:04.446Z,-0.68
2023-01-27T18:06:34.412Z,-0.79
2023-01-27T18:09:03.678Z,-1.02
2023-01-27T18:11:33.937Z,-0.89
2023-01-27T18:14:02.878Z,-0.85
2023-01-27T18:16:31.208Z,-0.87
2023-01-27T18:19:10.080Z,-0.99
2023-01-27T18:21:39.652Z,-1.00
2023-01-27T18:24:15.740Z,-0.86
2023-01-27T18:26:44.092Z,-0.72
2023-01-27T18:29:20.512Z,-0.79
2023-01-27T18:31:49.434Z,-0.78
2023-01-27T18:34:23.601Z,-0.73
2023-01-27T18:36:54.168Z,-0.71
2023-01-27T18:39:30.261Z,-0.82
2023-01-27T18:41:58.345Z,-1.03
2023-01-27T18:44:34.474Z,-0.99
2023-01-27T18:47:13.334Z,-0.92
2023-01-27T18:49:41.329Z,-0.81
2023-01-27T18:52:12.762Z,-0.85
2023-01-27T18:54:40.790Z,-0.80
2023-01-27T18:57:08.859Z,-0.86
2023-01-27T18:59:36.967Z,-0.90
2023-01-27T19:02:06.663Z,-0.84
2023-01-27T19:04:34.817Z,-0.75
2023-01-27T19:07:05.392Z,-0.75
2023-01-27T19:09:34.799Z,-0.74
2023-01-27T19:12:03.227Z,-0.80
2023-01-27T19:14:34.014Z,-0.74
2023-01-27T19:17:02.063Z,-0.80
2023-01-27T19:19:30.401Z,-0.92
2023-01-27T19:21:58.681Z,-0.98
2023-01-27T19:24:26.889Z,-0.71
2023-01-27T19:26:57.599Z,-0.78
2023-01-27T19:29:26.929Z,-0.71
2023-01-27T19:31:55.020Z,-0.64
2023-01-27T19:34:23.138Z,-0.63
2023-01-27T19:36:51.113Z,-0.58
2023-01-27T19:39:20.199Z,-0.55
2023-01-27T19:41:48.400Z,-0.70
2023-01-27T19:44:17.928Z,-0.73
2023-01-27T19:46:46.028Z,-0.62
2023-01-27T19:49:16.498Z,-0.56
2023-01-27T19:51:44.877Z,-0.62
2023-01-27T19:54:12.788Z,-0.68
2023-01-27T19:56:40.843Z,-0.70
2023-01-27T19:59:10.947Z,-0.87
2023-01-27T20:01:40.302Z,-0.71
2023-01-27T20:04:09.084Z,-0.56
2023-01-27T20:06:37.186Z,-0.50
2023-01-27T20:09:05.696Z,-0.54
2023-01-27T20:11:35.256Z,-0.48
2023-01-27T20:14:03.760Z,-0.57
2023-01-27T20:16:32.323Z,-0.48
2023-01-27T20:19:01.796Z,-0.42
2023-01-27T20:21:31.531Z,-0.41
2023-01-27T20:23:59.690Z,-0.47
2023-01-27T20:26:29.816Z,-0.47
2023-01-27T20:28:57.750Z,-0.38
2023-01-27T20:31:25.868Z,-0.42
2023-01-27T20:33:54.115Z,-0.43
2023-01-27T20:36:24.570Z,-0.36
2023-01-27T20:38:53.219Z,-0.32
2023-01-27T20:41:22.326Z,-0.32
2023-01-27T20:43:50.978Z,-0.29
2023-01-27T20:46:21.034Z,-0.40
2023-01-27T20:48:49.006Z,-0.35
2023-01-27T20:51:17.443Z,-0.37
2023-01-27T21:09:44.091Z,-0.31
2023-01-27T21:12:12.125Z,-0.25
2023-01-27T21:14:40.301Z,-0.25
2023-01-27T21:17:08.287Z,-0.23
2023-01-27T21:19:36.217Z,-0.20
2023-01-27T21:22:04.270Z,-0.15
2023-01-27T21:24:32.739Z,-0.15
2023-01-27T21:27:02.238Z,-0.20
2023-01-27T21:29:30.332Z,-0.16
2023-01-27T21:31:58.783Z,-0.21
2023-01-27T21:34:27.104Z,-0.16
2023-01-27T21:36:56.139Z,-0.21
2023-01-27T21:39:24.759Z,-0.17
2023-01-27T21:42:10.051Z,-0.16
2023-01-27T21:44:56.886Z,-0.19
2023-01-27T21:47:24.977Z,-0.16
2023-01-27T21:50:02.120Z,-0.10
2023-01-27T21:52:33.118Z,-0.10
2023-01-27T21:55:01.177Z,-0.12
2023-01-27T21:57:29.378Z,-0.08
2023-01-27T21:59:58.848Z,-0.02
2023-01-27T22:02:26.886Z,0.00
2023-01-27T22:04:54.924Z,-0.04
2023-01-27T22:07:22.861Z,-0.13
2023-01-27T22:09:50.981Z,-0.16
2023-01-27T22:12:19.095Z,-0.14
2023-01-27T22:14:47.226Z,-0.17
2023-01-27T22:17:18.987Z,-0.18
2023-01-27T22:19:47.907Z,-0.10
2023-01-27T22:22:15.828Z,-0.05
2023-01-27T22:24:44.308Z,-0.04
2023-01-27T22:27:12.332Z,0.05
2023-01-27T22:29:40.546Z,0.04
2023-01-27T22:32:08.528Z,0.10
2023-01-27T22:34:38.151Z,0.14
2023-01-27T22:37:06.087Z,0.15
2023-01-27T22:39:34.379Z,0.14
2023-01-27T22:42:02.332Z,0.12
2023-01-27T22:44:30.504Z,0.13
2023-01-27T22:46:58.455Z,0.12
2023-01-27T22:49:26.456Z,0.11
2023-01-27T22:51:55.852Z,0.13
2023-01-27T22:54:23.787Z,0.14
2023-01-27T22:56:51.782Z,0.15
2023-01-27T22:59:19.746Z,0.19
2023-01-27T23:01:47.645Z,0.21
2023-01-27T23:04:15.667Z,0.26
2023-01-27T23:06:43.610Z,0.21
2023-01-27T23:09:13.516Z,0.21
2023-01-27T23:11:41.559Z,0.13
2023-01-27T23:14:10.097Z,0.10
2023-01-27T23:16:38.106Z,0.15
2023-01-27T23:19:06.606Z,0.20
2023-01-27T23:21:34.713Z,0.22
2023-01-27T23:24:03.045Z,0.19
2023-01-27T23:26:33.037Z,0.12
2023-01-27T23:29:01.486Z,0.05
2023-01-27T23:31:30.018Z,0.14
2023-01-27T23:33:58.332Z,0.15
2023-01-27T23:36:26.751Z,0.10
2023-01-27T23:38:54.710Z,0.00
2023-01-27T23:41:23.072Z,-0.07
2023-01-27T23:43:56.669Z,-0.08
2023-01-27T23:46:25.051Z,-0.06
2023-01-27T23:48:53.340Z,-0.15
2023-01-27T23:51:21.811Z,-0.17
2023-01-27T23:53:50.480Z,-0.18
2023-01-27T23:56:19.593Z,-0.17
2023-01-27T23:58:47.806Z,-0.18
